sensor_id;sensor_type;location;lat;lon;timestamp;P1;durP1;ratioP1;P2;durP2;ratioP2
78903;SDS011;68291;49.602;8.722;2023-03-03T00:01:01;15.43;;;11.83;;
78903;SDS011;68291;49.602;8.722;2023-03-03T00:07:10;14.43;;;10.50;;
78903;SDS011;68291;49.602;8.722;2023-03-03T00:09:56;16.83;;;11.10;;
78903;SDS011;68291;49.602;8.722;2023-03-03T00:12:44;15.17;;;11.20;;
78903;SDS011;68291;49.602;8.722;2023-03-03T00:15:22;18.77;;;10.57;;
78903;SDS011;68291;49.602;8.722;2023-03-03T00:17:57;14.87;;;11.10;;
78903;SDS011;68291;49.602;8.722;2023-03-03T00:20:45;12.43;;;9.30;;
78903;SDS011;68291;49.602;8.722;2023-03-03T00:23:35;15.60;;;11.13;;
78903;SDS011;68291;49.602;8.722;2023-03-03T00:26:37;15.50;;;9.07;;
78903;SDS011;68291;49.602;8.722;2023-03-03T00:29:29;17.37;;;10.37;;
78903;SDS011;68291;49.602;8.722;2023-03-03T00:32:17;16.00;;;9.53;;
78903;SDS011;68291;49.602;8.722;2023-03-03T00:35:16;14.73;;;9.63;;
78903;SDS011;68291;49.602;8.722;2023-03-03T00:38:23;14.17;;;9.50;;
78903;SDS011;68291;49.602;8.722;2023-03-03T00:41:02;14.80;;;9.93;;
78903;SDS011;68291;49.602;8.722;2023-03-03T00:43:56;13.80;;;9.30;;
78903;SDS011;68291;49.602;8.722;2023-03-03T00:46:55;14.00;;;9.37;;
78903;SDS011;68291;49.602;8.722;2023-03-03T00:49:53;16.70;;;10.20;;
78903;SDS011;68291;49.602;8.722;2023-03-03T00:53:05;14.60;;;10.40;;
78903;SDS011;68291;49.602;8.722;2023-03-03T00:55:53;13.83;;;8.67;;
78903;SDS011;68291;49.602;8.722;2023-03-03T00:58:49;17.03;;;10.27;;
78903;SDS011;68291;49.602;8.722;2023-03-03T01:01:32;13.63;;;9.50;;
78903;SDS011;68291;49.602;8.722;2023-03-03T01:04:11;11.67;;;9.10;;
78903;SDS011;68291;49.602;8.722;2023-03-03T01:06:52;14.03;;;10.00;;
78903;SDS011;68291;49.602;8.722;2023-03-03T01:09:34;16.90;;;10.17;;
78903;SDS011;68291;49.602;8.722;2023-03-03T01:12:17;13.90;;;9.37;;
78903;SDS011;68291;49.602;8.722;2023-03-03T01:15:01;16.23;;;9.70;;
78903;SDS011;68291;49.602;8.722;2023-03-03T01:17:34;12.40;;;9.47;;
78903;SDS011;68291;49.602;8.722;2023-03-03T01:20:19;14.17;;;9.70;;
78903;SDS011;68291;49.602;8.722;2023-03-03T01:23:05;15.67;;;9.77;;
78903;SDS011;68291;49.602;8.722;2023-03-03T01:25:39;11.87;;;9.03;;
78903;SDS011;68291;49.602;8.722;2023-03-03T01:28:30;13.47;;;9.50;;
78903;SDS011;68291;49.602;8.722;2023-03-03T01:31:12;14.30;;;9.63;;
78903;SDS011;68291;49.602;8.722;2023-03-03T01:33:57;16.77;;;10.40;;
78903;SDS011;68291;49.602;8.722;2023-03-03T01:36:32;15.70;;;10.67;;
78903;SDS011;68291;49.602;8.722;2023-03-03T01:39:24;13.13;;;9.27;;
78903;SDS011;68291;49.602;8.722;2023-03-03T01:42:08;20.20;;;10.67;;
78903;SDS011;68291;49.602;8.722;2023-03-03T01:47:51;17.97;;;10.43;;
78903;SDS011;68291;49.602;8.722;2023-03-03T01:50:41;17.57;;;11.80;;
78903;SDS011;68291;49.602;8.722;2023-03-03T01:53:33;13.37;;;9.50;;
78903;SDS011;68291;49.602;8.722;2023-03-03T01:56:16;13.80;;;10.07;;
78903;SDS011;68291;49.602;8.722;2023-03-03T01:59:08;12.47;;;9.87;;
78903;SDS011;68291;49.602;8.722;2023-03-03T02:02:00;14.70;;;10.57;;
78903;SDS011;68291;49.602;8.722;2023-03-03T02:04:54;15.07;;;10.33;;
78903;SDS011;68291;49.602;8.722;2023-03-03T02:07:47;14.23;;;10.73;;
78903;SDS011;68291;49.602;8.722;2023-03-03T02:10:20;15.80;;;10.13;;
78903;SDS011;68291;49.602;8.722;2023-03-03T02:13:28;13.70;;;10.90;;
78903;SDS011;68291;49.602;8.722;2023-03-03T02:16:17;14.40;;;10.33;;
78903;SDS011;68291;49.602;8.722;2023-03-03T02:22:09;13.17;;;9.83;;
78903;SDS011;68291;49.602;8.722;2023-03-03T02:24:45;16.00;;;11.10;;
78903;SDS011;68291;49.602;8.722;2023-03-03T02:27:49;13.83;;;9.20;;
78903;SDS011;68291;49.602;8.722;2023-03-03T02:30:38;12.73;;;9.07;;
78903;SDS011;68291;49.602;8.722;2023-03-03T02:33:21;12.87;;;9.57;;
78903;SDS011;68291;49.602;8.722;2023-03-03T02:36:12;15.97;;;10.30;;
78903;SDS011;68291;49.602;8.722;2023-03-03T02:39:03;15.03;;;10.00;;
78903;SDS011;68291;49.602;8.722;2023-03-03T02:41:51;15.47;;;10.10;;
78903;SDS011;68291;49.602;8.722;2023-03-03T02:47:58;15.40;;;9.87;;
78903;SDS011;68291;49.602;8.722;2023-03-03T02:50:55;13.90;;;10.53;;
78903;SDS011;68291;49.602;8.722;2023-03-03T02:53:33;16.87;;;9.77;;
78903;SDS011;68291;49.602;8.722;2023-03-03T02:56:14;14.50;;;10.20;;
78903;SDS011;68291;49.602;8.722;2023-03-03T02:58:51;14.10;;;9.80;;
78903;SDS011;68291;49.602;8.722;2023-03-03T03:01:25;15.13;;;9.83;;
78903;SDS011;68291;49.602;8.722;2023-03-03T03:04:11;13.27;;;9.90;;
78903;SDS011;68291;49.602;8.722;2023-03-03T03:06:54;15.53;;;9.63;;
78903;SDS011;68291;49.602;8.722;2023-03-03T03:09:36;13.23;;;9.60;;
78903;SDS011;68291;49.602;8.722;2023-03-03T03:12:17;14.03;;;10.00;;
78903;SDS011;68291;49.602;8.722;2023-03-03T03:15:07;16.37;;;9.47;;
78903;SDS011;68291;49.602;8.722;2023-03-03T03:17:55;17.70;;;9.90;;
78903;SDS011;68291;49.602;8.722;2023-03-03T03:20:44;14.30;;;10.67;;
78903;SDS011;68291;49.602;8.722;2023-03-03T03:23:31;13.93;;;9.47;;
78903;SDS011;68291;49.602;8.722;2023-03-03T03:26:10;14.10;;;10.03;;
78903;SDS011;68291;49.602;8.722;2023-03-03T03:29:05;13.37;;;9.40;;
78903;SDS011;68291;49.602;8.722;2023-03-03T03:31:57;13.43;;;10.10;;
78903;SDS011;68291;49.602;8.722;2023-03-03T03:34:45;16.20;;;9.80;;
78903;SDS011;68291;49.602;8.722;2023-03-03T03:37:29;14.83;;;9.77;;
78903;SDS011;68291;49.602;8.722;2023-03-03T03:40:09;12.90;;;10.07;;
78903;SDS011;68291;49.602;8.722;2023-03-03T03:42:46;15.40;;;10.07;;
78903;SDS011;68291;49.602;8.722;2023-03-03T03:45:28;14.77;;;9.60;;
78903;SDS011;68291;49.602;8.722;2023-03-03T03:48:11;13.83;;;10.00;;
78903;SDS011;68291;49.602;8.722;2023-03-03T03:51:09;13.43;;;9.37;;
78903;SDS011;68291;49.602;8.722;2023-03-03T03:53:59;14.63;;;9.37;;
78903;SDS011;68291;49.602;8.722;2023-03-03T03:56:43;12.03;;;9.63;;
78903;SDS011;68291;49.602;8.722;2023-03-03T03:59:30;14.37;;;9.80;;
78903;SDS011;68291;49.602;8.722;2023-03-03T04:02:22;13.27;;;9.10;;
78903;SDS011;68291;49.602;8.722;2023-03-03T04:05:08;13.50;;;9.03;;
78903;SDS011;68291;49.602;8.722;2023-03-03T04:07:51;16.47;;;9.97;;
78903;SDS011;68291;49.602;8.722;2023-03-03T04:10:33;15.43;;;10.20;;
78903;SDS011;68291;49.602;8.722;2023-03-03T04:13:17;12.20;;;9.33;;
78903;SDS011;68291;49.602;8.722;2023-03-03T04:16:05;13.27;;;9.00;;
78903;SDS011;68291;49.602;8.722;2023-03-03T04:18:42;13.53;;;10.00;;
78903;SDS011;68291;49.602;8.722;2023-03-03T04:21:33;15.87;;;10.10;;
78903;SDS011;68291;49.602;8.722;2023-03-03T04:24:13;15.63;;;9.77;;
78903;SDS011;68291;49.602;8.722;2023-03-03T04:26:48;14.50;;;10.23;;
78903;SDS011;68291;49.602;8.722;2023-03-03T04:29:36;12.90;;;9.33;;
78903;SDS011;68291;49.602;8.722;2023-03-03T04:32:10;12.33;;;8.87;;
78903;SDS011;68291;49.602;8.722;2023-03-03T04:35:09;12.20;;;9.10;;
78903;SDS011;68291;49.602;8.722;2023-03-03T04:37:51;12.23;;;9.30;;
78903;SDS011;68291;49.602;8.722;2023-03-03T04:43:39;13.33;;;9.17;;
78903;SDS011;68291;49.602;8.722;2023-03-03T04:46:29;13.73;;;10.00;;
78903;SDS011;68291;49.602;8.722;2023-03-03T04:49:15;13.20;;;9.87;;
78903;SDS011;68291;49.602;8.722;2023-03-03T04:52:08;13.60;;;9.43;;
78903;SDS011;68291;49.602;8.722;2023-03-03T04:54:46;14.00;;;9.10;;
78903;SDS011;68291;49.602;8.722;2023-03-03T04:57:34;13.73;;;9.37;;
78903;SDS011;68291;49.602;8.722;2023-03-03T05:00:14;14.07;;;10.30;;
78903;SDS011;68291;49.602;8.722;2023-03-03T05:02:52;16.03;;;9.57;;
78903;SDS011;68291;49.602;8.722;2023-03-03T05:05:44;15.53;;;10.60;;
78903;SDS011;68291;49.602;8.722;2023-03-03T05:08:35;14.53;;;10.33;;
78903;SDS011;68291;49.602;8.722;2023-03-03T05:11:29;16.07;;;9.63;;
78903;SDS011;68291;49.602;8.722;2023-03-03T05:14:25;14.33;;;9.90;;
78903;SDS011;68291;49.602;8.722;2023-03-03T05:17:01;13.97;;;10.47;;
78903;SDS011;68291;49.602;8.722;2023-03-03T05:19:43;14.57;;;10.07;;
78903;SDS011;68291;49.602;8.722;2023-03-03T05:22:16;14.67;;;9.67;;
78903;SDS011;68291;49.602;8.722;2023-03-03T05:25:03;15.77;;;10.50;;
78903;SDS011;68291;49.602;8.722;2023-03-03T05:27:53;15.97;;;9.63;;
78903;SDS011;68291;49.602;8.722;2023-03-03T05:30:44;14.23;;;9.87;;
78903;SDS011;68291;49.602;8.722;2023-03-03T05:33:41;15.23;;;10.03;;
78903;SDS011;68291;49.602;8.722;2023-03-03T05:36:11;14.80;;;10.03;;
78903;SDS011;68291;49.602;8.722;2023-03-03T05:39:06;12.50;;;9.33;;
78903;SDS011;68291;49.602;8.722;2023-03-03T05:41:59;22.73;;;9.00;;
78903;SDS011;68291;49.602;8.722;2023-03-03T05:44:39;15.20;;;9.70;;
78903;SDS011;68291;49.602;8.722;2023-03-03T05:50:37;12.77;;;9.00;;
78903;SDS011;68291;49.602;8.722;2023-03-03T05:53:22;16.37;;;10.53;;
78903;SDS011;68291;49.602;8.722;2023-03-03T05:56:12;15.03;;;10.17;;
78903;SDS011;68291;49.602;8.722;2023-03-03T05:58:55;14.80;;;10.10;;
78903;SDS011;68291;49.602;8.722;2023-03-03T06:01:27;15.20;;;9.63;;
78903;SDS011;68291;49.602;8.722;2023-03-03T06:07:36;14.07;;;10.17;;
78903;SDS011;68291;49.602;8.722;2023-03-03T06:10:27;14.40;;;10.53;;
78903;SDS011;68291;49.602;8.722;2023-03-03T06:13:26;13.80;;;10.23;;
78903;SDS011;68291;49.602;8.722;2023-03-03T06:16:10;15.60;;;9.77;;
78903;SDS011;68291;49.602;8.722;2023-03-03T06:18:44;14.30;;;9.70;;
78903;SDS011;68291;49.602;8.722;2023-03-03T06:24:33;13.07;;;9.50;;
78903;SDS011;68291;49.602;8.722;2023-03-03T06:27:12;15.70;;;9.60;;
78903;SDS011;68291;49.602;8.722;2023-03-03T06:29:50;18.30;;;10.53;;
78903;SDS011;68291;49.602;8.722;2023-03-03T06:32:36;15.90;;;9.53;;
78903;SDS011;68291;49.602;8.722;2023-03-03T06:35:25;14.00;;;9.90;;
78903;SDS011;68291;49.602;8.722;2023-03-03T06:38:12;16.20;;;10.37;;
78903;SDS011;68291;49.602;8.722;2023-03-03T06:40:54;14.97;;;9.47;;
78903;SDS011;68291;49.602;8.722;2023-03-03T06:43:31;14.33;;;10.43;;
78903;SDS011;68291;49.602;8.722;2023-03-03T06:46:16;15.33;;;10.07;;
78903;SDS011;68291;49.602;8.722;2023-03-03T06:49:09;18.77;;;10.43;;
78903;SDS011;68291;49.602;8.722;2023-03-03T06:51:44;14.67;;;9.80;;
78903;SDS011;68291;49.602;8.722;2023-03-03T06:54:26;15.50;;;11.17;;
78903;SDS011;68291;49.602;8.722;2023-03-03T06:57:16;14.67;;;10.90;;
78903;SDS011;68291;49.602;8.722;2023-03-03T07:00:15;13.50;;;10.60;;
78903;SDS011;68291;49.602;8.722;2023-03-03T07:02:52;15.57;;;10.80;;
78903;SDS011;68291;49.602;8.722;2023-03-03T07:05:46;15.80;;;10.70;;
78903;SDS011;68291;49.602;8.722;2023-03-03T07:08:38;14.57;;;11.20;;
78903;SDS011;68291;49.602;8.722;2023-03-03T07:14:19;14.70;;;10.63;;
78903;SDS011;68291;49.602;8.722;2023-03-03T07:17:08;15.67;;;10.93;;
78903;SDS011;68291;49.602;8.722;2023-03-03T07:19:46;16.97;;;11.63;;
78903;SDS011;68291;49.602;8.722;2023-03-03T07:22:27;20.60;;;14.43;;
78903;SDS011;68291;49.602;8.722;2023-03-03T07:25:18;18.17;;;13.10;;
78903;SDS011;68291;49.602;8.722;2023-03-03T07:28:10;17.50;;;12.73;;
78903;SDS011;68291;49.602;8.722;2023-03-03T07:31:14;19.83;;;13.70;;
78903;SDS011;68291;49.602;8.722;2023-03-03T07:34:01;18.27;;;13.50;;
78903;SDS011;68291;49.602;8.722;2023-03-03T07:36:58;21.23;;;12.70;;
78903;SDS011;68291;49.602;8.722;2023-03-03T07:39:47;23.37;;;13.73;;
78903;SDS011;68291;49.602;8.722;2023-03-03T07:42:33;22.60;;;13.83;;
78903;SDS011;68291;49.602;8.722;2023-03-03T07:45:28;18.93;;;14.30;;
78903;SDS011;68291;49.602;8.722;2023-03-03T07:48:06;20.77;;;14.43;;
78903;SDS011;68291;49.602;8.722;2023-03-03T07:51:15;28.90;;;15.27;;
78903;SDS011;68291;49.602;8.722;2023-03-03T07:54:00;25.93;;;17.57;;
78903;SDS011;68291;49.602;8.722;2023-03-03T07:56:58;22.30;;;14.20;;
78903;SDS011;68291;49.602;8.722;2023-03-03T07:59:48;24.23;;;16.87;;
78903;SDS011;68291;49.602;8.722;2023-03-03T08:05:50;23.73;;;16.43;;
78903;SDS011;68291;49.602;8.722;2023-03-03T08:08:44;24.80;;;16.93;;
78903;SDS011;68291;49.602;8.722;2023-03-03T08:11:39;28.53;;;16.23;;
78903;SDS011;68291;49.602;8.722;2023-03-03T08:14:24;25.87;;;16.13;;
78903;SDS011;68291;49.602;8.722;2023-03-03T08:17:01;27.77;;;17.40;;
78903;SDS011;68291;49.602;8.722;2023-03-03T08:19:59;27.33;;;15.93;;
78903;SDS011;68291;49.602;8.722;2023-03-03T08:22:44;28.63;;;16.90;;
78903;SDS011;68291;49.602;8.722;2023-03-03T08:25:31;25.10;;;16.43;;
78903;SDS011;68291;49.602;8.722;2023-03-03T08:28:03;21.37;;;16.00;;
78903;SDS011;68291;49.602;8.722;2023-03-03T08:30:48;22.17;;;17.23;;
78903;SDS011;68291;49.602;8.722;2023-03-03T08:33:55;26.37;;;16.97;;
78903;SDS011;68291;49.602;8.722;2023-03-03T08:36:30;26.17;;;17.00;;
78903;SDS011;68291;49.602;8.722;2023-03-03T08:39:09;28.80;;;17.33;;
78903;SDS011;68291;49.602;8.722;2023-03-03T08:41:55;24.17;;;17.60;;
78903;SDS011;68291;49.602;8.722;2023-03-03T08:44:39;30.40;;;18.60;;
78903;SDS011;68291;49.602;8.722;2023-03-03T08:47:28;28.60;;;19.57;;
78903;SDS011;68291;49.602;8.722;2023-03-03T08:50:14;28.47;;;19.17;;
78903;SDS011;68291;49.602;8.722;2023-03-03T08:56:04;28.47;;;20.23;;
78903;SDS011;68291;49.602;8.722;2023-03-03T08:58:36;27.33;;;20.00;;
78903;SDS011;68291;49.602;8.722;2023-03-03T09:01:29;25.80;;;18.77;;
78903;SDS011;68291;49.602;8.722;2023-03-03T09:04:09;33.10;;;20.47;;
78903;SDS011;68291;49.602;8.722;2023-03-03T09:07:00;30.77;;;20.83;;
78903;SDS011;68291;49.602;8.722;2023-03-03T09:10:00;34.00;;;21.13;;
78903;SDS011;68291;49.602;8.722;2023-03-03T09:12:40;77.83;;;53.93;;
78903;SDS011;68291;49.602;8.722;2023-03-03T09:15:34;68.10;;;46.17;;
78903;SDS011;68291;49.602;8.722;2023-03-03T09:18:30;41.27;;;26.37;;
78903;SDS011;68291;49.602;8.722;2023-03-03T09:21:17;35.13;;;23.33;;
78903;SDS011;68291;49.602;8.722;2023-03-03T09:24:10;33.33;;;23.17;;
78903;SDS011;68291;49.602;8.722;2023-03-03T09:27:06;33.80;;;23.53;;
78903;SDS011;68291;49.602;8.722;2023-03-03T09:30:09;47.80;;;33.90;;
78903;SDS011;68291;49.602;8.722;2023-03-03T09:33:26;34.47;;;23.37;;
78903;SDS011;68291;49.602;8.722;2023-03-03T09:36:22;33.00;;;22.37;;
78903;SDS011;68291;49.602;8.722;2023-03-03T09:39:18;32.93;;;22.30;;
78903;SDS011;68291;49.602;8.722;2023-03-03T09:42:22;32.23;;;21.27;;
78903;SDS011;68291;49.602;8.722;2023-03-03T09:45:45;31.17;;;22.07;;
78903;SDS011;68291;49.602;8.722;2023-03-03T09:48:32;29.50;;;20.50;;
78903;SDS011;68291;49.602;8.722;2023-03-03T09:51:49;33.00;;;20.97;;
78903;SDS011;68291;49.602;8.722;2023-03-03T09:54:52;32.00;;;22.37;;
78903;SDS011;68291;49.602;8.722;2023-03-03T09:57:59;31.90;;;20.40;;
78903;SDS011;68291;49.602;8.722;2023-03-03T10:00:54;29.93;;;21.50;;
78903;SDS011;68291;49.602;8.722;2023-03-03T10:04:05;29.10;;;20.03;;
78903;SDS011;68291;49.602;8.722;2023-03-03T10:07:26;28.17;;;18.97;;
78903;SDS011;68291;49.602;8.722;2023-03-03T10:10:43;32.00;;;21.20;;
78903;SDS011;68291;49.602;8.722;2023-03-03T10:13:51;31.77;;;20.73;;
78903;SDS011;68291;49.602;8.722;2023-03-03T10:16:55;30.43;;;21.07;;
78903;SDS011;68291;49.602;8.722;2023-03-03T10:19:48;33.33;;;23.13;;
78903;SDS011;68291;49.602;8.722;2023-03-03T10:23:14;34.00;;;22.77;;
78903;SDS011;68291;49.602;8.722;2023-03-03T10:26:05;30.67;;;22.87;;
78903;SDS011;68291;49.602;8.722;2023-03-03T10:32:23;32.33;;;22.10;;
78903;SDS011;68291;49.602;8.722;2023-03-03T10:35:27;31.53;;;22.67;;
78903;SDS011;68291;49.602;8.722;2023-03-03T10:38:40;42.57;;;24.83;;
78903;SDS011;68291;49.602;8.722;2023-03-03T10:41:54;38.63;;;25.60;;
78903;SDS011;68291;49.602;8.722;2023-03-03T10:45:23;38.50;;;24.50;;
78903;SDS011;68291;49.602;8.722;2023-03-03T10:51:57;31.93;;;22.90;;
78903;SDS011;68291;49.602;8.722;2023-03-03T10:54:55;30.83;;;21.77;;
78903;SDS011;68291;49.602;8.722;2023-03-03T10:58:03;32.33;;;22.70;;
78903;SDS011;68291;49.602;8.722;2023-03-03T11:01:06;35.40;;;21.67;;
78903;SDS011;68291;49.602;8.722;2023-03-03T11:04:15;32.70;;;21.73;;
78903;SDS011;68291;49.602;8.722;2023-03-03T11:07:10;31.57;;;20.73;;
78903;SDS011;68291;49.602;8.722;2023-03-03T11:10:01;27.97;;;19.30;;
78903;SDS011;68291;49.602;8.722;2023-03-03T11:13:08;27.87;;;18.90;;
78903;SDS011;68291;49.602;8.722;2023-03-03T11:15:57;29.60;;;20.17;;
78903;SDS011;68291;49.602;8.722;2023-03-03T11:19:06;29.60;;;20.83;;
78903;SDS011;68291;49.602;8.722;2023-03-03T11:22:09;39.77;;;21.43;;
78903;SDS011;68291;49.602;8.722;2023-03-03T11:28:08;36.03;;;22.03;;
78903;SDS011;68291;49.602;8.722;2023-03-03T11:31:15;30.27;;;21.80;;
78903;SDS011;68291;49.602;8.722;2023-03-03T11:34:13;32.27;;;21.97;;
78903;SDS011;68291;49.602;8.722;2023-03-03T11:37:08;30.30;;;20.87;;
78903;SDS011;68291;49.602;8.722;2023-03-03T11:39:54;32.47;;;21.47;;
78903;SDS011;68291;49.602;8.722;2023-03-03T11:42:39;30.37;;;22.00;;
78903;SDS011;68291;49.602;8.722;2023-03-03T11:45:45;34.97;;;21.90;;
78903;SDS011;68291;49.602;8.722;2023-03-03T11:51:39;33.30;;;23.57;;
78903;SDS011;68291;49.602;8.722;2023-03-03T11:54:44;29.70;;;21.03;;
78903;SDS011;68291;49.602;8.722;2023-03-03T11:57:44;35.17;;;22.30;;
78903;SDS011;68291;49.602;8.722;2023-03-03T12:00:30;31.37;;;22.23;;
78903;SDS011;68291;49.602;8.722;2023-03-03T12:03:19;29.27;;;21.93;;
78903;SDS011;68291;49.602;8.722;2023-03-03T12:06:18;32.10;;;23.20;;
78903;SDS011;68291;49.602;8.722;2023-03-03T12:09:00;32.67;;;21.17;;
78903;SDS011;68291;49.602;8.722;2023-03-03T12:12:01;30.27;;;21.37;;
78903;SDS011;68291;49.602;8.722;2023-03-03T12:14:46;31.87;;;22.13;;
78903;SDS011;68291;49.602;8.722;2023-03-03T12:17:48;30.50;;;21.50;;
78903;SDS011;68291;49.602;8.722;2023-03-03T12:20:44;31.57;;;21.47;;
78903;SDS011;68291;49.602;8.722;2023-03-03T12:23:49;30.67;;;21.07;;
78903;SDS011;68291;49.602;8.722;2023-03-03T12:27:02;28.33;;;20.10;;
78903;SDS011;68291;49.602;8.722;2023-03-03T12:30:04;33.00;;;22.07;;
78903;SDS011;68291;49.602;8.722;2023-03-03T12:32:57;30.40;;;21.70;;
78903;SDS011;68291;49.602;8.722;2023-03-03T12:35:56;32.67;;;21.57;;
78903;SDS011;68291;49.602;8.722;2023-03-03T12:39:01;33.10;;;22.80;;
78903;SDS011;68291;49.602;8.722;2023-03-03T12:42:10;33.60;;;22.83;;
78903;SDS011;68291;49.602;8.722;2023-03-03T12:45:16;32.07;;;21.27;;
78903;SDS011;68291;49.602;8.722;2023-03-03T12:48:08;32.70;;;21.33;;
78903;SDS011;68291;49.602;8.722;2023-03-03T12:50:51;30.60;;;20.83;;
78903;SDS011;68291;49.602;8.722;2023-03-03T12:53:44;28.00;;;19.97;;
78903;SDS011;68291;49.602;8.722;2023-03-03T12:57:04;28.17;;;19.70;;
78903;SDS011;68291;49.602;8.722;2023-03-03T13:03:12;28.23;;;19.50;;
78903;SDS011;68291;49.602;8.722;2023-03-03T13:06:26;26.97;;;20.23;;
78903;SDS011;68291;49.602;8.722;2023-03-03T13:09:21;31.27;;;20.83;;
78903;SDS011;68291;49.602;8.722;2023-03-03T13:12:10;26.80;;;19.43;;
78903;SDS011;68291;49.602;8.722;2023-03-03T13:15:03;30.63;;;19.00;;
78903;SDS011;68291;49.602;8.722;2023-03-03T13:18:24;36.03;;;19.10;;
78903;SDS011;68291;49.602;8.722;2023-03-03T13:21:37;26.97;;;19.47;;
78903;SDS011;68291;49.602;8.722;2023-03-03T13:24:34;26.73;;;18.80;;
78903;SDS011;68291;49.602;8.722;2023-03-03T13:27:26;25.70;;;18.77;;
78903;SDS011;68291;49.602;8.722;2023-03-03T13:30:14;29.43;;;20.63;;
78903;SDS011;68291;49.602;8.722;2023-03-03T13:33:14;25.33;;;17.93;;
78903;SDS011;68291;49.602;8.722;2023-03-03T13:36:01;26.93;;;19.47;;
78903;SDS011;68291;49.602;8.722;2023-03-03T13:38:47;29.53;;;19.27;;
78903;SDS011;68291;49.602;8.722;2023-03-03T13:44:48;24.97;;;18.80;;
78903;SDS011;68291;49.602;8.722;2023-03-03T13:47:37;25.30;;;18.07;;
78903;SDS011;68291;49.602;8.722;2023-03-03T13:50:26;23.00;;;18.47;;
78903;SDS011;68291;49.602;8.722;2023-03-03T13:53:33;24.67;;;17.97;;
78903;SDS011;68291;49.602;8.722;2023-03-03T13:56:42;23.30;;;17.00;;
78903;SDS011;68291;49.602;8.722;2023-03-03T13:59:51;24.80;;;18.40;;
78903;SDS011;68291;49.602;8.722;2023-03-03T14:06:11;22.90;;;17.00;;
78903;SDS011;68291;49.602;8.722;2023-03-03T14:08:59;29.03;;;18.67;;
78903;SDS011;68291;49.602;8.722;2023-03-03T14:12:24;23.47;;;18.00;;
78903;SDS011;68291;49.602;8.722;2023-03-03T14:15:13;21.53;;;16.77;;
78903;SDS011;68291;49.602;8.722;2023-03-03T14:18:02;23.23;;;18.23;;
78903;SDS011;68291;49.602;8.722;2023-03-03T14:20:50;22.90;;;17.57;;
78903;SDS011;68291;49.602;8.722;2023-03-03T14:23:33;22.53;;;17.47;;
78903;SDS011;68291;49.602;8.722;2023-03-03T14:26:58;20.33;;;15.97;;
78903;SDS011;68291;49.602;8.722;2023-03-03T14:30:06;20.97;;;16.53;;
78903;SDS011;68291;49.602;8.722;2023-03-03T14:33:17;20.63;;;17.23;;
78903;SDS011;68291;49.602;8.722;2023-03-03T14:36:05;23.23;;;17.63;;
78903;SDS011;68291;49.602;8.722;2023-03-03T14:38:50;20.90;;;16.47;;
78903;SDS011;68291;49.602;8.722;2023-03-03T14:41:39;19.43;;;15.47;;
78903;SDS011;68291;49.602;8.722;2023-03-03T14:44:35;21.43;;;16.63;;
78903;SDS011;68291;49.602;8.722;2023-03-03T14:51:16;20.30;;;17.40;;
78903;SDS011;68291;49.602;8.722;2023-03-03T14:54:00;21.07;;;16.13;;
78903;SDS011;68291;49.602;8.722;2023-03-03T14:59:55;22.43;;;16.50;;
78903;SDS011;68291;49.602;8.722;2023-03-03T15:02:40;22.20;;;16.83;;
78903;SDS011;68291;49.602;8.722;2023-03-03T15:05:22;22.13;;;16.83;;
78903;SDS011;68291;49.602;8.722;2023-03-03T15:07:54;23.60;;;16.73;;
78903;SDS011;68291;49.602;8.722;2023-03-03T15:10:51;19.50;;;15.67;;
78903;SDS011;68291;49.602;8.722;2023-03-03T15:13:31;22.23;;;16.70;;
78903;SDS011;68291;49.602;8.722;2023-03-03T15:16:16;21.13;;;16.30;;
78903;SDS011;68291;49.602;8.722;2023-03-03T15:22:17;19.53;;;15.53;;
78903;SDS011;68291;49.602;8.722;2023-03-03T15:25:19;20.90;;;17.27;;
78903;SDS011;68291;49.602;8.722;2023-03-03T15:28:17;21.27;;;16.00;;
78903;SDS011;68291;49.602;8.722;2023-03-03T15:31:11;18.83;;;15.80;;
78903;SDS011;68291;49.602;8.722;2023-03-03T15:34:04;20.67;;;16.57;;
78903;SDS011;68291;49.602;8.722;2023-03-03T15:37:23;23.93;;;16.20;;
78903;SDS011;68291;49.602;8.722;2023-03-03T15:40:14;22.40;;;17.83;;
78903;SDS011;68291;49.602;8.722;2023-03-03T15:43:02;25.17;;;17.70;;
78903;SDS011;68291;49.602;8.722;2023-03-03T15:45:51;23.67;;;17.97;;
78903;SDS011;68291;49.602;8.722;2023-03-03T15:48:48;20.83;;;16.67;;
78903;SDS011;68291;49.602;8.722;2023-03-03T15:51:46;18.90;;;14.87;;
78903;SDS011;68291;49.602;8.722;2023-03-03T15:54:54;20.00;;;15.40;;
78903;SDS011;68291;49.602;8.722;2023-03-03T15:58:10;19.40;;;14.13;;
78903;SDS011;68291;49.602;8.722;2023-03-03T16:01:21;20.10;;;14.43;;
78903;SDS011;68291;49.602;8.722;2023-03-03T16:04:12;26.40;;;17.80;;
78903;SDS011;68291;49.602;8.722;2023-03-03T16:06:51;21.53;;;16.27;;
78903;SDS011;68291;49.602;8.722;2023-03-03T16:09:46;21.37;;;14.20;;
78903;SDS011;68291;49.602;8.722;2023-03-03T16:12:42;17.47;;;13.60;;
78903;SDS011;68291;49.602;8.722;2023-03-03T16:15:43;14.40;;;12.10;;
78903;SDS011;68291;49.602;8.722;2023-03-03T16:18:34;19.30;;;13.20;;
78903;SDS011;68291;49.602;8.722;2023-03-03T16:21:30;22.17;;;14.23;;
78903;SDS011;68291;49.602;8.722;2023-03-03T16:24:38;19.83;;;14.00;;
78903;SDS011;68291;49.602;8.722;2023-03-03T16:27:42;22.43;;;14.47;;
78903;SDS011;68291;49.602;8.722;2023-03-03T16:30:29;18.83;;;13.53;;
78903;SDS011;68291;49.602;8.722;2023-03-03T16:33:18;30.43;;;15.33;;
78903;SDS011;68291;49.602;8.722;2023-03-03T16:36:05;24.10;;;14.60;;
78903;SDS011;68291;49.602;8.722;2023-03-03T16:39:09;18.37;;;12.10;;
78903;SDS011;68291;49.602;8.722;2023-03-03T16:41:59;17.27;;;12.07;;
78903;SDS011;68291;49.602;8.722;2023-03-03T16:45:02;15.60;;;11.00;;
78903;SDS011;68291;49.602;8.722;2023-03-03T16:48:04;18.30;;;11.10;;
78903;SDS011;68291;49.602;8.722;2023-03-03T16:51:15;17.40;;;11.07;;
78903;SDS011;68291;49.602;8.722;2023-03-03T16:54:04;14.87;;;11.10;;
78903;SDS011;68291;49.602;8.722;2023-03-03T16:56:49;15.97;;;11.47;;
78903;SDS011;68291;49.602;8.722;2023-03-03T17:02:42;17.07;;;11.53;;
78903;SDS011;68291;49.602;8.722;2023-03-03T17:05:58;17.07;;;10.80;;
78903;SDS011;68291;49.602;8.722;2023-03-03T17:08:46;15.50;;;11.03;;
78903;SDS011;68291;49.602;8.722;2023-03-03T17:11:58;14.50;;;9.87;;
78903;SDS011;68291;49.602;8.722;2023-03-03T17:15:15;15.10;;;10.43;;
78903;SDS011;68291;49.602;8.722;2023-03-03T17:18:18;15.57;;;10.40;;
78903;SDS011;68291;49.602;8.722;2023-03-03T17:21:10;12.03;;;9.30;;
78903;SDS011;68291;49.602;8.722;2023-03-03T17:24:07;13.73;;;10.23;;
78903;SDS011;68291;49.602;8.722;2023-03-03T17:26:52;15.17;;;11.03;;
78903;SDS011;68291;49.602;8.722;2023-03-03T17:29:52;15.80;;;10.33;;
78903;SDS011;68291;49.602;8.722;2023-03-03T17:36:12;16.27;;;10.47;;
78903;SDS011;68291;49.602;8.722;2023-03-03T17:39:10;16.77;;;10.77;;
78903;SDS011;68291;49.602;8.722;2023-03-03T17:42:14;17.07;;;11.00;;
78903;SDS011;68291;49.602;8.722;2023-03-03T17:45:04;17.40;;;10.13;;
78903;SDS011;68291;49.602;8.722;2023-03-03T17:47:49;13.30;;;9.77;;
78903;SDS011;68291;49.602;8.722;2023-03-03T17:51:12;17.20;;;11.33;;
78903;SDS011;68291;49.602;8.722;2023-03-03T17:57:50;17.77;;;10.97;;
78903;SDS011;68291;49.602;8.722;2023-03-03T18:00:42;15.23;;;10.30;;
78903;SDS011;68291;49.602;8.722;2023-03-03T18:03:50;16.40;;;10.73;;
78903;SDS011;68291;49.602;8.722;2023-03-03T18:10:23;17.87;;;11.57;;